WetterOnline ( https://www.wetteronline.de )

Wetter aktuell Uckermark

Aktuelles Wetter: Angermünde (55m)

6-stündlich | Neueste Meldungen
Ortszeit Temperatur Wetter
Di, 26.10. 2:00 5.5° C bedeckt
Mo, 25.10. 20:00 6.9° C bedeckt
Mo, 25.10. 14:00 10.3° C wolkig
Mo, 25.10. 8:00 1.2° C wolkenlos
Mo, 25.10. 2:00 3.8° C wolkenlos
So, 24.10. 20:00 7.4° C -
So, 24.10. 14:00 11.2° C leicht bewölkt
So, 24.10. 8:00 5.0° C bedeckt
Ortszeit Temperatur Wetter
Di, 26.10. 7:30 5.6° C wolkig
Di, 26.10. 7:20 5.6° C wolkig
Di, 26.10. 7:10 5.5° C wolkig
Di, 26.10. 7:00 5.5° C bewölkt
Di, 26.10. 6:50 5.5° C bewölkt
Di, 26.10. 6:40 5.5° C bedeckt
Di, 26.10. 6:30 5.7° C wolkig
Di, 26.10. 6:00 5.2° C wolkig
Di, 26.10. 5:30 5.1° C wolkig
Di, 26.10. 5:00 5.5° C bedeckt
Di, 26.10. 4:30 4.9° C bedeckt
Ortszeit Relative Feuchte Sichtweite
Di, 26.10. 2:00 92% 23 km
Mo, 25.10. 20:00 88% 30 km
Mo, 25.10. 14:00 64% 35 km
Mo, 25.10. 8:00 93% 21 km
Mo, 25.10. 2:00 87% 35 km
So, 24.10. 20:00 76% 40 km
So, 24.10. 14:00 71% 50 km
So, 24.10. 8:00 97% 17 km
Ortszeit Relative Feuchte Sichtweite
Di, 26.10. 7:30 93% 22 km
Di, 26.10. 7:20 93% -
Di, 26.10. 7:10 93% -
Di, 26.10. 7:00 93% 22 km
Di, 26.10. 6:50 93% -
Di, 26.10. 6:40 92% -
Di, 26.10. 6:30 91% 23 km
Di, 26.10. 6:00 93% 19 km
Di, 26.10. 5:30 94% 18 km
Di, 26.10. 5:00 93% 21 km
Di, 26.10. 4:30 95% 17 km
Ortszeit Niederschlagsmenge Niederschlagsart
Di, 26.10. 2:00 0.0 l/m2 in 6 Std. -
Mo, 25.10. 20:00 0.0 l/m2 in 12 Std. -
Mo, 25.10. 14:00 0.0 l/m2 in 6 Std. -
Mo, 25.10. 8:00 0.0 l/m2 in 12 Std. -
Mo, 25.10. 2:00 0.0 l/m2 in 6 Std. -
So, 24.10. 20:00 0.0 l/m2 in 12 Std. -
So, 24.10. 14:00 0.0 l/m2 in 6 Std. -
So, 24.10. 8:00 0.0 l/m2 in 12 Std. -
Ortszeit Niederschlagsmenge Niederschlagsart
Di, 26.10. 7:30 0.0 l/m2 in 1 Std. -
Di, 26.10. 7:20 keine Meldung -
Di, 26.10. 7:10 keine Meldung -
Di, 26.10. 7:00 0.0 l/m2 in 1 Std. -
Di, 26.10. 6:50 keine Meldung -
Di, 26.10. 6:40 keine Meldung -
Di, 26.10. 6:30 0.0 l/m2 in 1 Std. -
Di, 26.10. 6:00 0.0 l/m2 in 1 Std. -
Di, 26.10. 5:30 0.0 l/m2 in 1 Std. -
Di, 26.10. 5:00 0.0 l/m2 in 1 Std. -
Di, 26.10. 4:30 0.0 l/m2 in 1 Std. -
Ortszeit Stärke Spitze Richtung
km/h Bft. km/h Grad Sektor
Di, 26.10. 2:00 9 2 22 210° SW
Mo, 25.10. 20:00 7 2 25 190° S
Mo, 25.10. 14:00 13 3 28 200° S
Mo, 25.10. 8:00 4 1 18 150° SO
Mo, 25.10. 2:00 11 2 24 160° S
So, 24.10. 20:00 13 3 31 150° SO
So, 24.10. 14:00 11 2 25 190° S
So, 24.10. 8:00 9 2 15 190° S
Ortszeit Stärke Spitze Richtung
km/h Bft. km/h Grad Sektor
Di, 26.10. 7:30 9 2 17 200° S
Di, 26.10. 7:20 9 2 - 200° S
Di, 26.10. 7:10 9 2 - 190° S
Di, 26.10. 7:00 13 3 20 190° S
Di, 26.10. 6:50 13 3 - 190° S
Di, 26.10. 6:40 13 3 - 190° S
Di, 26.10. 6:30 14 3 22 190° S
Di, 26.10. 6:00 11 2 14 190° S
Di, 26.10. 5:30 11 2 14 190° S
Di, 26.10. 5:00 13 3 20 200° S
Di, 26.10. 4:30 11 2 14 190° S
Ortszeit Untergrenze Bedeckung Gattung
total tief tief mittel hoch
Di, 26.10. 2:00 4200 m 8/8 8/8 - - -
Mo, 25.10. 20:00 5400 m 8/8 8/8 - - -
Mo, 25.10. 14:00 6900 m 8/8 5/8 - - -
Mo, 25.10. 8:00 - 0/8 0/8 - - -
Mo, 25.10. 2:00 - 0/8 0/8 - - -
So, 24.10. 20:00 - - - - - -
So, 24.10. 14:00 660 m 4/8 3/8 - - -
So, 24.10. 8:00 1320 m 8/8 8/8 - - -
Ortszeit Bedeckungsgrad in Achtel und Wolkenuntergrenze
Di, 26.10. 7:30 1(1800m) 8(3900m) 8(4500m)
Di, 26.10. 7:20 1(1800m) 8(3900m) 8(4500m)
Di, 26.10. 7:10 2(2100m) 8(3300m) 8(4800m)
Di, 26.10. 7:00 7(2100m) 8(3300m) 8(3600m)
Di, 26.10. 6:50 7(2100m) 8(3300m) 8(3600m)
Di, 26.10. 6:40 7(2100m) 8(2400m)
Di, 26.10. 6:30 3(1800m) 8(4200m) 8(5400m)
Di, 26.10. 6:00 1(1800m) 8(7500m) 8(9000m)
Di, 26.10. 5:30 4(1500m) 7(8100m) 7(9000m)
Di, 26.10. 5:00 2(1320m) 8(1500m)
Di, 26.10. 4:30 8(1410m) 8(1500m)
Ortszeit Luftdruck NN (hPa) Tendenz (hPa in 3 Std.)
Di, 26.10. 2:00 1018 - 0,3
Mo, 25.10. 20:00 1019 - 0,2
Mo, 25.10. 14:00 1020 - 0,7
Mo, 25.10. 8:00 1022 - 0,9
Mo, 25.10. 2:00 1024 - 1,0
So, 24.10. 20:00 1027 - 1,0
So, 24.10. 14:00 1030 - 1,1
So, 24.10. 8:00 1031 + 0,4
Ortszeit Luftdruck NN (hPa) Tendenz (hPa in 3 Std.)
Di, 26.10. 7:30 1018 - 0,2
Di, 26.10. 7:20 1018 keine Meldung
Di, 26.10. 7:10 1018 keine Meldung
Di, 26.10. 7:00 1018 0,0
Di, 26.10. 6:50 1018 keine Meldung
Di, 26.10. 6:40 1018 keine Meldung
Di, 26.10. 6:30 1018 - 0,1
Di, 26.10. 6:00 1018 - 0,3
Di, 26.10. 5:30 1018 - 0,1
Di, 26.10. 5:00 1018 - 0,3
Di, 26.10. 4:30 1018 - 0,4
Ortszeit Schneehöhe (cm)
Di, 26.10. 2:00 0
Mo, 25.10. 20:00 0
Mo, 25.10. 14:00 0
Mo, 25.10. 8:00 0
Mo, 25.10. 2:00 0
So, 24.10. 20:00 0
So, 24.10. 14:00 0
So, 24.10. 8:00 0
Ortszeit Schneehöhe (cm)
Di, 26.10. 7:30 0
Di, 26.10. 7:20 0
Di, 26.10. 7:10 0
Di, 26.10. 7:00 0
Di, 26.10. 6:50 0
Di, 26.10. 6:40 0
Di, 26.10. 6:30 0
Di, 26.10. 6:00 0
Di, 26.10. 5:30 0
Di, 26.10. 5:00 0
Di, 26.10. 4:30 0
Link zu dieser Seite / Seite empfehlen

Das Wetter in ...